Time,TemperatureF,DewpointF,PressureIn,WindDirection,WindDirectionDegrees,WindSpeedMPH,WindSpeedGustMPH,Humidity,HourlyPrecipIn,Conditions,Clouds,dailyrainin,SoftwareType,DateUTC
2013-03-12 00:01:00,50.0,37.0,30.25,NNE,24,0.0,0.0,61,0.00,,,0.00,,2013-03-12 07:01:00,
2013-03-12 00:12:00,50.0,37.0,30.25,NNE,24,0.0,0.0,61,0.00,,,0.00,,2013-03-12 07:12:00,
2013-03-12 00:21:00,49.0,37.0,30.25,NNE,26,0.0,2.0,64,0.00,,,0.00,,2013-03-12 07:21:00,
2013-03-12 00:32:00,49.0,38.0,30.25,NNE,26,0.0,1.0,65,0.00,,,0.00,,2013-03-12 07:32:00,
2013-03-12 00:41:00,49.0,38.0,30.25,NNE,26,0.0,1.0,65,0.00,,,0.00,,2013-03-12 07:41:00,
2013-03-12 00:52:00,48.0,37.0,30.25,NNE,26,0.0,0.0,66,0.00,,,0.00,,2013-03-12 07:52:00,
2013-03-12 01:01:00,48.0,38.0,30.25,NNE,26,0.0,0.0,67,0.00,,,0.00,,2013-03-12 08:01:00,
2013-03-12 01:12:00,48.0,38.0,30.25,NNE,26,0.0,0.0,67,0.00,,,0.00,,2013-03-12 08:12:00,
2013-03-12 01:22:00,47.0,38.0,30.25,NNE,25,0.0,2.0,70,0.00,,,0.00,,2013-03-12 08:22:00,
2013-03-12 01:32:00,47.0,38.0,30.25,NNE,25,0.0,2.0,70,0.00,,,0.00,,2013-03-12 08:32:00,
2013-03-12 01:41:00,47.0,38.0,30.25,NNE,25,0.0,2.0,70,0.00,,,0.00,,2013-03-12 08:41:00,
2013-03-12 01:52:00,48.0,38.0,30.24,NNE,24,0.0,2.0,69,0.00,,,0.00,,2013-03-12 08:52:00,
2013-03-12 02:02:00,48.0,38.0,30.24,NNE,24,0.0,1.0,69,0.00,,,0.00,,2013-03-12 09:02:00,
2013-03-12 02:11:00,48.0,38.0,30.24,NNE,24,0.0,1.0,69,0.00,,,0.00,,2013-03-12 09:11:00,
2013-03-12 02:22:00,47.0,37.0,30.24,NNE,24,0.0,2.0,69,0.00,,,0.00,,2013-03-12 09:22:00,
2013-03-12 02:32:00,47.0,37.0,30.24,NNE,21,0.0,7.0,69,0.00,,,0.00,,2013-03-12 09:32:00,
2013-03-12 02:42:00,47.0,37.0,30.24,NNE,21,0.0,7.0,69,0.00,,,0.00,,2013-03-12 09:42:00,
2013-03-12 02:52:00,47.0,38.0,30.24,NNE,20,0.0,1.0,70,0.00,,,0.00,,2013-03-12 09:52:00,
2013-03-12 03:01:00,47.0,38.0,30.24,NNE,22,0.0,0.0,70,0.00,,,0.00,,2013-03-12 10:01:00,
2013-03-12 03:11:00,47.0,38.0,30.24,NNE,22,0.0,0.0,70,0.00,,,0.00,,2013-03-12 10:11:00,
2013-03-12 03:22:00,48.0,39.0,30.23,NNE,24,0.0,-999.0,70,-99.99,,,-99.99,,2013-03-12 10:22:00,
2013-03-12 03:32:00,48.0,39.0,30.22,NNE,24,0.0,-999.0,70,-99.99,,,-99.99,,2013-03-12 10:32:00,
2013-03-12 03:41:00,48.0,39.0,30.22,NNE,24,0.0,-999.0,70,-99.99,,,-99.99,,2013-03-12 10:41:00,
2013-03-12 03:52:00,49.0,40.0,30.22,NNE,24,0.0,-999.0,70,-99.99,,,-99.99,,2013-03-12 10:52:00,
2013-03-12 04:22:00,49.0,40.0,30.22,NNE,24,0.0,-999.0,70,-99.99,,,-99.99,,2013-03-12 11:22:00,
2013-03-12 04:31:00,49.0,40.0,30.22,NNE,24,0.0,-999.0,70,-99.99,,,-99.99,,2013-03-12 11:31:00,
2013-03-12 04:42:00,49.0,40.0,30.22,NNE,24,0.0,-999.0,70,-99.99,,,-99.99,,2013-03-12 11:42:00,
2013-03-12 04:52:00,49.0,40.0,30.22,NNE,24,0.0,-999.0,70,-99.99,,,-99.99,,2013-03-12 11:52:00,
2013-03-12 05:02:00,49.0,40.0,30.22,NNE,24,0.0,-999.0,70,-99.99,,,-99.99,,2013-03-12 12:02:00,
2013-03-12 05:22:00,47.0,38.0,30.22,NNE,24,0.0,-999.0,72,-99.99,,,-99.99,,2013-03-12 12:22:00,
2013-03-12 05:31:00,47.0,39.0,30.21,NNE,24,0.0,-999.0,73,-99.99,,,-99.99,,2013-03-12 12:31:00,
2013-03-12 05:41:00,47.0,39.0,30.21,NNE,24,0.0,-999.0,73,-99.99,,,-99.99,,2013-03-12 12:41:00,
2013-03-12 05:52:00,47.0,39.0,30.21,NNE,24,0.0,-999.0,75,-99.99,,,-99.99,,2013-03-12 12:52:00,
2013-03-12 06:21:00,47.0,39.0,30.22,NNE,24,0.0,-999.0,75,-99.99,,,-99.99,,2013-03-12 13:21:00,
2013-03-12 06:32:00,47.0,39.0,30.22,NNE,24,0.0,-999.0,75,-99.99,,,-99.99,,2013-03-12 13:32:00,
2013-03-12 06:42:00,47.0,39.0,30.22,NNE,24,0.0,-999.0,75,-99.99,,,-99.99,,2013-03-12 13:42:00,
2013-03-12 06:52:00,47.0,39.0,30.22,NNE,24,0.0,-999.0,75,-99.99,,,-99.99,,2013-03-12 13:52:00,
2013-03-12 07:01:00,46.0,39.0,30.22,NNE,24,0.0,-999.0,75,-99.99,,,-99.99,,2013-03-12 14:01:00,
2013-03-12 07:11:00,46.0,39.0,30.22,NNE,24,0.0,-999.0,75,-99.99,,,-99.99,,2013-03-12 14:11:00,
2013-03-12 07:21:00,46.0,39.0,30.22,NNE,24,0.0,-999.0,77,-99.99,,,-99.99,,2013-03-12 14:21:00,
2013-03-12 07:32:00,46.0,40.0,30.22,NNE,24,0.0,-999.0,78,-99.99,,,-99.99,,2013-03-12 14:32:00,
2013-03-12 07:42:00,46.0,40.0,30.22,NNE,24,0.0,-999.0,78,-99.99,,,-99.99,,2013-03-12 14:42:00,
2013-03-12 07:53:00,47.0,39.0,30.22,NNE,24,0.0,-999.0,75,-99.99,,,-99.99,,2013-03-12 14:53:00,
2013-03-12 08:01:00,47.0,39.0,30.23,NNE,22,0.0,-999.0,75,-99.99,,,-99.99,,2013-03-12 15:01:00,
2013-03-12 08:22:00,47.0,39.0,30.23,NNE,22,0.0,-999.0,73,-99.99,,,-99.99,,2013-03-12 15:22:00,
2013-03-12 08:31:00,47.0,39.0,30.23,NNE,22,0.0,-999.0,73,-99.99,,,-99.99,,2013-03-12 15:31:00,
2013-03-12 08:53:00,48.0,39.0,30.24,NNE,22,0.0,-999.0,72,-99.99,,,-99.99,,2013-03-12 15:53:00,
2013-03-12 09:01:00,49.0,40.0,30.24,NNE,22,0.0,-999.0,72,-99.99,,,-99.99,,2013-03-12 16:01:00,
2013-03-12 09:22:00,50.0,40.0,30.24,NNE,22,0.0,0.0,69,0.00,,,0.00,,2013-03-12 16:22:00,
2013-03-12 09:32:00,51.0,41.0,30.24,NNE,22,0.0,0.0,68,0.00,,,0.00,,2013-03-12 16:32:00,
2013-03-12 09:42:00,51.0,41.0,30.24,NNE,22,0.0,0.0,68,0.00,,,0.00,,2013-03-12 16:42:00,
2013-03-12 09:52:00,52.0,41.0,30.24,NNE,22,0.0,0.0,66,0.00,,,0.00,,2013-03-12 16:52:00,
2013-03-12 10:02:00,53.0,42.0,30.25,NNE,22,0.0,1.0,65,0.00,,,0.00,,2013-03-12 17:02:00,
2013-03-12 10:21:00,57.0,43.0,30.24,NNE,22,0.0,1.0,59,0.00,,,0.00,,2013-03-12 17:21:00,
2013-03-12 10:32:00,59.0,43.0,30.25,NNE,22,0.0,0.0,55,0.00,,,0.00,,2013-03-12 17:32:00,
2013-03-12 10:42:00,59.0,43.0,30.25,NNE,22,0.0,0.0,55,0.00,,,0.00,,2013-03-12 17:42:00,
2013-03-12 10:53:00,61.0,45.0,30.25,NNE,22,0.0,0.0,56,0.00,,,0.00,,2013-03-12 17:53:00,
2013-03-12 11:02:00,60.0,44.0,30.25,NNE,22,1.0,2.0,56,0.00,,,0.00,,2013-03-12 18:02:00,
2013-03-12 11:12:00,61.0,47.0,30.25,NNE,22,0.0,1.0,60,0.00,,,0.00,,2013-03-12 18:12:00,
2013-03-12 11:22:00,61.0,47.0,30.25,NNE,22,0.0,1.0,60,0.00,,,0.00,,2013-03-12 18:22:00,
2013-03-12 11:32:00,60.0,48.0,30.25,NNE,22,0.0,3.0,64,0.00,,,0.00,,2013-03-12 18:32:00,
2013-03-12 11:42:00,60.0,48.0,30.25,NNE,22,0.0,3.0,64,0.00,,,0.00,,2013-03-12 18:42:00,
2013-03-12 11:53:00,61.0,47.0,30.25,NNE,22,0.0,1.0,61,0.00,,,0.00,,2013-03-12 18:53:00,
2013-03-12 12:02:00,62.0,48.0,30.26,NNE,22,0.0,1.0,60,0.00,,,0.00,,2013-03-12 19:02:00,
2013-03-12 12:12:00,62.0,48.0,30.26,NNE,22,0.0,1.0,60,0.00,,,0.00,,2013-03-12 19:12:00,
2013-03-12 12:22:00,63.0,50.0,30.26,NNE,22,0.0,1.0,62,0.00,,,0.00,,2013-03-12 19:22:00,
2013-03-12 12:32:00,63.0,49.0,30.25,NNE,22,0.0,1.0,61,0.00,,,0.00,,2013-03-12 19:32:00,
2013-03-12 12:43:00,63.0,49.0,30.25,NNE,22,0.0,1.0,61,0.00,,,0.00,,2013-03-12 19:43:00,
2013-03-12 12:53:00,64.0,48.0,30.25,NNE,24,0.0,1.0,57,0.00,,,0.00,,2013-03-12 19:53:00,
2013-03-12 13:01:00,65.0,50.0,30.25,NNE,24,0.0,2.0,59,0.00,,,0.00,,2013-03-12 20:01:00,
2013-03-12 13:11:00,65.0,50.0,30.25,NNE,24,0.0,2.0,59,0.00,,,0.00,,2013-03-12 20:11:00,
2013-03-12 13:22:00,66.0,49.0,30.25,NNE,22,0.0,0.0,54,0.00,,,0.00,,2013-03-12 20:22:00,
2013-03-12 13:32:00,67.0,51.0,30.25,NNW,348,0.0,1.0,56,0.00,,,0.00,,2013-03-12 20:32:00,
2013-03-12 13:41:00,67.0,51.0,30.25,NNW,348,0.0,1.0,56,0.00,,,0.00,,2013-03-12 20:41:00,
2013-03-12 13:53:00,68.0,52.0,30.25,WSW,238,0.0,2.0,57,0.00,,,0.00,,2013-03-12 20:53:00,
2013-03-12 14:02:00,68.0,50.0,30.24,South,183,0.0,2.0,53,0.00,,,0.00,,2013-03-12 21:02:00,
2013-03-12 14:11:00,68.0,50.0,30.24,South,183,0.0,2.0,53,0.00,,,0.00,,2013-03-12 21:11:00,
2013-03-12 14:21:00,67.0,49.0,30.24,SSW,200,0.0,1.0,52,0.00,,,0.00,,2013-03-12 21:21:00,
2013-03-12 14:32:00,68.0,49.0,30.24,SSE,163,1.0,3.0,51,0.00,,,0.00,,2013-03-12 21:32:00,
2013-03-12 14:42:00,68.0,49.0,30.24,SSE,163,1.0,3.0,51,0.00,,,0.00,,2013-03-12 21:42:00,
2013-03-12 14:52:00,67.0,49.0,30.24,SW,232,0.0,3.0,52,0.00,,,0.00,,2013-03-12 21:52:00,
2013-03-12 15:01:00,67.0,46.0,30.23,SSW,211,2.0,5.0,47,0.00,,,0.00,,2013-03-12 22:01:00,
2013-03-12 15:12:00,67.0,46.0,30.23,SSW,211,2.0,5.0,47,0.00,,,0.00,,2013-03-12 22:12:00,
2013-03-12 15:21:00,67.0,53.0,30.23,NW,325,0.0,3.0,61,0.00,,,0.00,,2013-03-12 22:21:00,
2013-03-12 15:32:00,66.0,50.0,30.23,NNW,330,0.0,1.0,57,0.00,,,0.00,,2013-03-12 22:32:00,
2013-03-12 15:42:00,66.0,50.0,30.23,NNW,330,0.0,1.0,57,0.00,,,0.00,,2013-03-12 22:42:00,
2013-03-12 15:53:00,65.0,50.0,30.23,NNW,332,0.0,1.0,58,0.00,,,0.00,,2013-03-12 22:53:00,
2013-03-12 16:02:00,64.0,48.0,30.23,NNW,332,0.0,1.0,57,0.00,,,0.00,,2013-03-12 23:02:00,
2013-03-12 16:11:00,64.0,48.0,30.23,NNW,332,0.0,1.0,57,0.00,,,0.00,,2013-03-12 23:11:00,
2013-03-12 16:22:00,63.0,48.0,30.23,NNE,13,0.0,1.0,59,0.00,,,0.00,,2013-03-12 23:22:00,
2013-03-12 16:33:00,63.0,48.0,30.23,NNE,13,0.0,4.0,59,0.00,,,0.00,,2013-03-12 23:33:00,
2013-03-12 16:42:00,63.0,48.0,30.23,NNE,13,0.0,4.0,59,0.00,,,0.00,,2013-03-12 23:42:00,
2013-03-12 16:52:00,63.0,47.0,30.23,NNE,13,0.0,3.0,56,0.00,,,0.00,,2013-03-12 23:52:00,
2013-03-12 17:02:00,62.0,47.0,30.22,NNE,13,0.0,1.0,57,0.00,,,0.00,,2013-03-13 00:02:00,
2013-03-12 17:11:00,62.0,47.0,30.22,NNE,13,0.0,1.0,57,0.00,,,0.00,,2013-03-13 00:11:00,
2013-03-12 17:22:00,61.0,45.0,30.22,NNE,13,0.0,0.0,55,0.00,,,0.00,,2013-03-13 00:22:00,
2013-03-12 17:32:00,62.0,46.0,30.22,NNE,13,0.0,1.0,55,0.00,,,0.00,,2013-03-13 00:32:00,
2013-03-12 17:41:00,62.0,46.0,30.22,NNE,13,0.0,1.0,55,0.00,,,0.00,,2013-03-13 00:41:00,
2013-03-12 17:53:00,61.0,47.0,30.22,North,5,0.0,1.0,59,0.00,,,0.00,,2013-03-13 00:53:00,
2013-03-12 18:02:00,60.0,46.0,30.22,North,5,0.0,1.0,60,0.00,,,0.00,,2013-03-13 01:02:00,
2013-03-12 18:12:00,60.0,46.0,30.22,North,5,0.0,1.0,60,0.00,,,0.00,,2013-03-13 01:12:00,
2013-03-12 18:21:00,59.0,45.0,30.22,North,5,0.0,1.0,60,0.00,,,0.00,,2013-03-13 01:21:00,
2013-03-12 18:31:00,59.0,46.0,30.22,North,5,0.0,0.0,62,0.00,,,0.00,,2013-03-13 01:31:00,
2013-03-12 18:42:00,59.0,46.0,30.22,North,5,0.0,0.0,62,0.00,,,0.00,,2013-03-13 01:42:00,
2013-03-12 18:52:00,58.0,45.0,30.22,North,5,0.0,0.0,63,0.00,,,0.00,,2013-03-13 01:52:00,
2013-03-12 19:01:00,58.0,45.0,30.23,North,5,0.0,0.0,63,0.00,,,0.00,,2013-03-13 02:01:00,
2013-03-12 19:11:00,58.0,45.0,30.23,North,5,0.0,0.0,63,0.00,,,0.00,,2013-03-13 02:11:00,
2013-03-12 19:21:00,56.0,44.0,30.23,North,5,0.0,1.0,63,0.00,,,0.00,,2013-03-13 02:21:00,
2013-03-12 19:31:00,55.0,43.0,30.24,NE,46,0.0,2.0,64,0.00,,,0.00,,2013-03-13 02:31:00,
2013-03-12 19:42:00,55.0,43.0,30.24,NE,46,0.0,2.0,64,0.00,,,0.00,,2013-03-13 02:42:00,
2013-03-12 19:52:00,53.0,42.0,30.24,NE,39,0.0,3.0,67,0.00,,,0.00,,2013-03-13 02:52:00,
2013-03-12 20:01:00,53.0,43.0,30.24,NE,39,0.0,1.0,69,0.00,,,0.00,,2013-03-13 03:01:00,
2013-03-12 20:11:00,53.0,43.0,30.24,NE,39,0.0,1.0,69,0.00,,,0.00,,2013-03-13 03:11:00,
2013-03-12 20:21:00,52.0,43.0,30.24,NE,39,0.0,0.0,71,0.00,,,0.00,,2013-03-13 03:21:00,
2013-03-12 20:31:00,51.0,42.0,30.24,NE,39,0.0,0.0,71,0.00,,,0.00,,2013-03-13 03:31:00,
2013-03-12 20:41:00,51.0,42.0,30.24,NE,39,0.0,0.0,71,0.00,,,0.00,,2013-03-13 03:41:00,
2013-03-12 20:52:00,51.0,42.0,30.24,NE,39,0.0,0.0,72,0.00,,,0.00,,2013-03-13 03:52:00,
2013-03-12 21:02:00,50.0,41.0,30.24,NE,39,0.0,0.0,71,0.00,,,0.00,,2013-03-13 04:02:00,
2013-03-12 21:12:00,50.0,41.0,30.24,NE,39,0.0,0.0,71,0.00,,,0.00,,2013-03-13 04:12:00,
2013-03-12 21:22:00,50.0,41.0,30.24,NE,39,0.0,0.0,72,0.00,,,0.00,,2013-03-13 04:22:00,
2013-03-12 21:31:00,51.0,42.0,30.24,NE,39,0.0,0.0,70,0.00,,,0.00,,2013-03-13 04:31:00,
2013-03-12 21:42:00,51.0,42.0,30.24,NE,39,0.0,0.0,70,0.00,,,0.00,,2013-03-13 04:42:00,
2013-03-12 21:53:00,52.0,42.0,30.24,NE,39,0.0,1.0,69,0.00,,,0.00,,2013-03-13 04:53:00,
2013-03-12 22:01:00,52.0,42.0,30.24,NE,39,0.0,1.0,68,0.00,,,0.00,,2013-03-13 05:01:00,
2013-03-12 22:11:00,52.0,42.0,30.24,NE,39,0.0,1.0,68,0.00,,,0.00,,2013-03-13 05:11:00,
2013-03-12 22:22:00,53.0,43.0,30.24,NE,39,0.0,1.0,68,0.00,,,0.00,,2013-03-13 05:22:00,
2013-03-12 22:31:00,53.0,42.0,30.24,NE,39,0.0,1.0,67,0.00,,,0.00,,2013-03-13 05:31:00,
2013-03-12 22:42:00,53.0,42.0,30.24,NE,39,0.0,1.0,67,0.00,,,0.00,,2013-03-13 05:42:00,
2013-03-12 22:52:00,52.0,42.0,30.25,NE,39,0.0,0.0,69,0.00,,,0.00,,2013-03-13 05:52:00,
2013-03-12 23:01:00,52.0,42.0,30.25,NE,39,0.0,0.0,69,0.00,,,0.00,,2013-03-13 06:01:00,
2013-03-12 23:11:00,52.0,42.0,30.25,NE,39,0.0,0.0,69,0.00,,,0.00,,2013-03-13 06:11:00,
2013-03-12 23:22:00,52.0,43.0,30.25,NE,39,0.0,0.0,70,0.00,,,0.00,,2013-03-13 06:22:00,
2013-03-12 23:31:00,52.0,43.0,30.25,NE,39,0.0,0.0,70,0.00,,,0.00,,2013-03-13 06:31:00,
2013-03-12 23:41:00,52.0,43.0,30.25,NE,39,0.0,0.0,70,0.00,,,0.00,,2013-03-13 06:41:00,
2013-03-12 23:52:00,51.0,42.0,30.24,NE,39,0.0,0.0,70,0.00,,,0.00,,2013-03-13 06:52:00,